Memorial Field Hot Springs US
ICAO: KHOT
IATA: HOT
Category: Medium
Scheduled Services: Yes

Elevation: 540 ft
TransAlt. 18000 ft.

Airport Communications:
MEMPHIS CNTR:127.825
ASOS:119.925
JONESBORO RDO:110
CTAF/UNICOM:123

KHOT Zoom In..

If Map Doesn't Load, Click Here

Runways:

(A) RW 05 length 6595 ft width 150 ft
ILS 111.50 / hdg 50

(B) RW 13 length 4098 ft width 100 ft
---- / hdg 130

(C) RW 23 length 6595 ft width 150 ft
---- / hdg 230

(D) RW 31 length 4098 ft width 100 ft
---- / hdg 310

Location; KHOT
Day. 24 / Time. 05.15 Zulu
* Altimeter: 29.95
* Temperature: 19° c. 66.2°f.
* Wind from: 090° Speed 07 kn.
Dewpoint: 19° c.
Visibility: 10 Statute Miles.
Clouds: Overcast 400 ft.

KHOT 240515Z AUTO 09007KT 10SM OVC004 19/19 A2995 RMK AO2 T01890189


Wind From 090°
Speed 07 kn.

 
 
jpsmedia.com for Web Design worldairports.se 2018   terms of use